createdAt,value
2024-03-10T00:00:18.204Z,39.62
2024-03-10T00:02:45.964Z,39.67
2024-03-10T00:05:14.742Z,39.68
2024-03-10T00:07:43.123Z,39.65
2024-03-10T00:10:11.828Z,39.75
2024-03-10T00:12:39.203Z,39.54
2024-03-10T00:15:07.803Z,39.41
2024-03-10T00:17:36.941Z,39.67
2024-03-10T00:20:05.172Z,39.50
2024-03-10T00:22:32.617Z,39.31
2024-03-10T00:24:59.930Z,39.68
2024-03-10T00:27:28.334Z,39.52
2024-03-10T00:29:55.621Z,39.61
2024-03-10T00:32:23.000Z,39.36
2024-03-10T00:34:50.297Z,39.02
2024-03-10T00:37:17.754Z,39.03
2024-03-10T00:39:44.978Z,38.96
2024-03-10T00:42:12.211Z,39.16
2024-03-10T00:44:39.962Z,38.45
2024-03-10T00:47:09.828Z,38.40
2024-03-10T00:49:37.910Z,57.14
2024-03-10T00:52:08.539Z,49.44
2024-03-10T00:54:35.932Z,34.99
2024-03-10T00:57:04.046Z,35.76
2024-03-10T00:59:31.673Z,37.34
2024-03-10T01:02:00.417Z,37.86
2024-03-10T01:04:29.017Z,37.77
2024-03-10T01:06:58.152Z,38.24
2024-03-10T01:09:25.719Z,38.63
2024-03-10T01:11:54.367Z,39.21
2024-03-10T01:14:22.151Z,39.09
2024-03-10T01:16:49.634Z,39.51
2024-03-10T01:19:17.013Z,39.59
2024-03-10T01:21:47.379Z,39.68
2024-03-10T01:24:15.128Z,39.82
2024-03-10T01:26:42.342Z,40.02
2024-03-10T01:29:10.050Z,39.48
2024-03-10T01:31:37.560Z,39.75
2024-03-10T01:34:05.395Z,39.72
2024-03-10T01:36:32.886Z,40.13
2024-03-10T01:39:00.120Z,39.92
2024-03-10T01:41:27.723Z,39.99
2024-03-10T01:43:55.261Z,40.11
2024-03-10T01:46:26.085Z,40.09
2024-03-10T01:48:54.653Z,40.28
2024-03-10T01:51:22.126Z,40.17
2024-03-10T01:53:51.944Z,40.42
2024-03-10T01:56:19.724Z,40.28
2024-03-10T01:58:47.843Z,40.52
2024-03-10T02:01:17.053Z,40.71
2024-03-10T02:03:49.818Z,40.49
2024-03-10T02:06:17.817Z,40.45
2024-03-10T02:08:46.718Z,40.13
2024-03-10T02:11:14.960Z,40.16
2024-03-10T02:13:42.280Z,40.04
2024-03-10T02:16:10.120Z,40.28
2024-03-10T02:18:38.060Z,40.38
2024-03-10T02:21:08.031Z,40.55
2024-03-10T02:24:07.902Z,40.31
2024-03-10T02:26:38.391Z,40.56
2024-03-10T02:29:17.903Z,40.76
2024-03-10T02:32:08.927Z,40.65
2024-03-10T02:34:56.402Z,40.69
2024-03-10T02:37:42.808Z,40.70
2024-03-10T02:40:29.908Z,41.10
2024-03-10T02:43:15.631Z,41.58
2024-03-10T02:46:01.806Z,40.91
2024-03-10T02:48:30.187Z,41.26
2024-03-10T02:50:57.492Z,41.08
2024-03-10T02:53:24.898Z,41.10
2024-03-10T02:55:52.190Z,41.15
2024-03-10T02:58:19.545Z,41.29
2024-03-10T03:00:49.083Z,40.77
2024-03-10T03:03:16.417Z,41.33
2024-03-10T03:05:43.694Z,40.99
2024-03-10T03:08:11.028Z,41.10
2024-03-10T03:10:38.268Z,41.58
2024-03-10T03:13:05.937Z,41.11
2024-03-10T03:15:33.210Z,40.89
2024-03-10T03:18:00.716Z,41.05
2024-03-10T03:20:28.584Z,40.99
2024-03-10T03:22:56.412Z,41.54
2024-03-10T03:25:25.846Z,41.72
2024-03-10T03:27:53.196Z,41.86
2024-03-10T03:30:20.728Z,41.63
2024-03-10T03:32:48.579Z,41.76
2024-03-10T03:35:19.408Z,42.18
2024-03-10T03:37:47.106Z,42.39
2024-03-10T03:40:15.512Z,42.38
2024-03-10T03:42:43.303Z,42.31
2024-03-10T03:45:11.007Z,42.48
2024-03-10T03:47:38.632Z,44.20
2024-03-10T03:50:07.028Z,44.63
2024-03-10T03:52:34.592Z,45.85
2024-03-10T03:55:02.460Z,45.54
2024-03-10T03:57:29.945Z,44.98
2024-03-10T03:59:57.390Z,45.10
2024-03-10T04:02:27.497Z,45.07
2024-03-10T04:04:56.084Z,45.20
2024-03-10T04:07:23.772Z,44.87
2024-03-10T04:09:51.105Z,44.99
2024-03-10T04:12:18.608Z,45.48
2024-03-10T04:14:45.926Z,45.56
2024-03-10T04:17:13.241Z,45.72
2024-03-10T04:19:40.586Z,45.36
2024-03-10T04:22:11.760Z,45.17
2024-03-10T04:24:42.680Z,45.18
2024-03-10T04:27:10.305Z,44.99
2024-03-10T04:29:37.932Z,45.75
2024-03-10T04:32:08.852Z,47.23
2024-03-10T04:34:39.857Z,47.58
2024-03-10T04:37:09.372Z,47.98
2024-03-10T04:39:37.144Z,48.25
2024-03-10T04:42:04.441Z,47.77
2024-03-10T04:44:32.041Z,48.02
2024-03-10T04:46:59.493Z,47.80
2024-03-10T04:49:27.511Z,47.47
2024-03-10T04:51:54.808Z,47.95
2024-03-10T04:54:22.212Z,48.42
2024-03-10T04:56:51.789Z,48.15
2024-03-10T04:59:19.361Z,47.83
2024-03-10T05:01:47.673Z,48.09
2024-03-10T05:04:15.312Z,48.05
2024-03-10T05:06:42.668Z,47.99
2024-03-10T05:09:09.858Z,47.59
2024-03-10T05:11:37.245Z,47.92
2024-03-10T05:14:05.681Z,48.59
2024-03-10T05:16:33.016Z,49.26
2024-03-10T05:19:00.290Z,47.70
2024-03-10T05:21:27.679Z,48.49
2024-03-10T05:23:55.062Z,49.32
2024-03-10T05:26:22.511Z,49.34
2024-03-10T05:28:50.093Z,49.57
2024-03-10T05:31:31.715Z,49.76
2024-03-10T05:34:00.804Z,49.43
2024-03-10T05:36:28.965Z,49.79
2024-03-10T05:38:57.033Z,49.37
2024-03-10T05:41:24.446Z,49.29
2024-03-10T05:43:51.826Z,49.84
2024-03-10T05:46:19.715Z,50.63
2024-03-10T05:48:48.584Z,51.14
2024-03-10T05:51:16.027Z,51.13
2024-03-10T05:53:43.632Z,51.51
2024-03-10T05:56:13.821Z,51.54
2024-03-10T05:58:41.200Z,51.10
2024-03-10T06:01:08.952Z,50.76
2024-03-10T06:03:36.665Z,50.70
2024-03-10T06:06:04.494Z,51.01
2024-03-10T06:08:32.017Z,50.84
2024-03-10T06:11:00.324Z,50.97
2024-03-10T06:13:27.937Z,51.14
2024-03-10T06:15:55.212Z,50.26
2024-03-10T06:18:25.097Z,51.55
2024-03-10T06:21:11.231Z,52.60
2024-03-10T06:23:57.370Z,52.96
2024-03-10T06:26:24.674Z,53.08
2024-03-10T06:28:52.594Z,53.29
2024-03-10T06:31:21.102Z,53.34
2024-03-10T06:33:52.048Z,52.71
2024-03-10T06:36:19.462Z,51.06
2024-03-10T06:38:46.762Z,51.55
2024-03-10T06:41:14.135Z,51.16
2024-03-10T06:43:41.412Z,51.36
2024-03-10T06:46:11.784Z,50.24
2024-03-10T06:48:39.197Z,50.08
2024-03-10T06:51:09.210Z,50.81
2024-03-10T06:53:36.528Z,50.35
2024-03-10T06:56:04.521Z,49.82
2024-03-10T06:58:31.975Z,50.80
2024-03-10T07:00:59.598Z,50.00
2024-03-10T07:03:27.104Z,50.65
2024-03-10T07:06:01.373Z,50.21
2024-03-10T07:08:28.878Z,49.53
2024-03-10T07:10:56.221Z,49.15
2024-03-10T07:13:24.083Z,48.30
2024-03-10T07:15:51.403Z,48.47
2024-03-10T07:18:18.753Z,48.34
2024-03-10T07:20:47.035Z,49.09
2024-03-10T07:23:14.666Z,48.99
2024-03-10T07:25:42.109Z,49.10
2024-03-10T07:28:09.435Z,48.65
2024-03-10T07:30:36.782Z,49.24
2024-03-10T07:33:04.346Z,48.03
2024-03-10T07:35:31.776Z,48.64
2024-03-10T07:37:59.236Z,46.98
2024-03-10T07:40:26.449Z,47.73
2024-03-10T07:42:53.777Z,45.99
2024-03-10T07:45:21.165Z,44.64
2024-03-10T07:47:49.678Z,44.39
2024-03-10T07:50:18.818Z,44.88
2024-03-10T07:52:47.626Z,43.59
2024-03-10T07:55:15.094Z,43.70
2024-03-10T07:57:42.482Z,43.05
2024-03-10T08:00:15.516Z,42.31
2024-03-10T08:02:44.686Z,41.63
2024-03-10T08:05:12.443Z,42.26
2024-03-10T08:07:41.414Z,41.60
2024-03-10T08:10:10.339Z,40.82
2024-03-10T08:12:37.645Z,41.10
2024-03-10T08:15:07.696Z,41.27
2024-03-10T08:17:35.112Z,41.37
2024-03-10T08:20:07.579Z,41.45
2024-03-10T08:22:38.353Z,41.46
2024-03-10T08:25:06.410Z,41.26
2024-03-10T08:27:35.033Z,40.70
2024-03-10T08:30:06.125Z,40.61
2024-03-10T08:32:34.568Z,40.62
2024-03-10T08:35:02.749Z,40.84
2024-03-10T08:37:29.983Z,40.94
2024-03-10T08:39:57.190Z,41.34
2024-03-10T08:42:28.968Z,40.93
2024-03-10T08:44:56.315Z,41.43
2024-03-10T08:47:23.620Z,41.50
2024-03-10T08:49:50.918Z,42.87
2024-03-10T08:52:19.592Z,41.76
2024-03-10T08:54:48.098Z,42.51
2024-03-10T08:57:15.387Z,42.56
2024-03-10T08:59:43.290Z,42.60
2024-03-10T09:02:10.768Z,41.60
2024-03-10T09:04:38.037Z,40.95
2024-03-10T09:07:06.877Z,39.94
2024-03-10T09:09:34.242Z,38.40
2024-03-10T09:12:01.703Z,36.50
2024-03-10T09:14:30.299Z,36.75
2024-03-10T09:16:57.740Z,36.06
2024-03-10T09:19:25.079Z,34.45
2024-03-10T09:21:52.510Z,34.87
2024-03-10T09:24:19.810Z,34.36
2024-03-10T09:26:47.050Z,34.22
2024-03-10T09:29:15.959Z,34.35
2024-03-10T09:31:44.691Z,34.51
2024-03-10T09:34:13.116Z,33.39
2024-03-10T09:36:41.161Z,33.57
2024-03-10T09:39:13.804Z,33.51
2024-03-10T09:41:43.199Z,33.29
2024-03-10T09:44:19.077Z,33.25
2024-03-10T09:46:51.995Z,33.39
2024-03-10T09:49:23.086Z,33.49
2024-03-10T09:51:50.674Z,33.24
2024-03-10T09:54:19.194Z,33.39
2024-03-10T09:56:51.523Z,33.40
2024-03-10T09:59:28.010Z,33.55
2024-03-10T10:01:56.012Z,33.56
2024-03-10T10:04:27.020Z,33.32
2024-03-10T10:06:57.911Z,33.39
2024-03-10T10:09:27.504Z,33.67
2024-03-10T10:11:57.542Z,34.34
2024-03-10T10:14:25.244Z,34.16
2024-03-10T10:16:58.016Z,34.04
2024-03-10T10:19:26.892Z,34.09
2024-03-10T10:21:54.703Z,33.44
2024-03-10T10:24:22.527Z,33.40
2024-03-10T10:26:59.711Z,33.76
2024-03-10T10:29:27.292Z,33.06
2024-03-10T10:32:00.130Z,33.77
2024-03-10T10:34:28.301Z,33.80
2024-03-10T10:36:57.291Z,32.86
2024-03-10T10:39:30.828Z,32.85
2024-03-10T10:42:02.093Z,33.04
2024-03-10T10:44:30.525Z,33.13
2024-03-10T10:47:00.894Z,32.95
2024-03-10T10:49:30.942Z,32.38
2024-03-10T10:51:58.405Z,32.61
2024-03-10T10:54:25.869Z,32.32
2024-03-10T10:56:57.320Z,32.50
2024-03-10T10:59:25.732Z,32.80
2024-03-10T11:01:59.933Z,32.29
2024-03-10T11:04:27.961Z,32.13
2024-03-10T11:06:56.901Z,32.34
2024-03-10T11:09:31.733Z,32.21
2024-03-10T11:12:17.587Z,32.20
2024-03-10T11:14:48.293Z,31.89
2024-03-10T11:17:18.316Z,31.70
2024-03-10T11:19:55.436Z,31.39
2024-03-10T11:22:28.981Z,31.68
2024-03-10T11:25:21.380Z,31.22
2024-03-10T11:27:49.948Z,30.81
2024-03-10T11:30:42.369Z,30.61
2024-03-10T11:33:12.559Z,30.40
2024-03-10T11:35:41.144Z,30.29
2024-03-10T11:38:11.409Z,30.07
2024-03-10T11:40:38.699Z,30.37
2024-03-10T11:43:08.230Z,30.81
2024-03-10T11:45:36.310Z,30.29
2024-03-10T11:48:04.269Z,30.08
2024-03-10T11:50:32.217Z,30.07
2024-03-10T11:52:59.577Z,29.66
2024-03-10T11:55:26.813Z,30.36
2024-03-10T11:57:54.690Z,29.52
2024-03-10T12:00:24.595Z,29.63
2024-03-10T12:02:54.622Z,29.50
2024-03-10T12:05:23.864Z,29.79
2024-03-10T12:07:59.163Z,29.44
2024-03-10T12:10:26.724Z,29.57
2024-03-10T12:12:54.000Z,29.91
2024-03-10T12:15:23.263Z,30.08
2024-03-10T12:17:50.633Z,30.28
2024-03-10T12:20:20.037Z,30.23
2024-03-10T12:22:50.451Z,30.26
2024-03-10T12:25:19.641Z,30.67
2024-03-10T12:27:50.913Z,30.38
2024-03-10T12:30:19.314Z,30.62
2024-03-10T12:32:53.827Z,29.72
2024-03-10T12:35:22.826Z,29.74
2024-03-10T12:37:50.685Z,29.98
2024-03-10T12:40:18.117Z,29.79
2024-03-10T12:42:48.539Z,30.01
2024-03-10T12:45:18.812Z,29.43
2024-03-10T12:47:47.468Z,29.48
2024-03-10T12:50:15.600Z,29.29
2024-03-10T12:52:43.688Z,29.55
2024-03-10T12:55:11.151Z,29.48
2024-03-10T12:57:40.206Z,29.64
2024-03-10T13:00:26.659Z,30.09
2024-03-10T13:02:57.400Z,29.79
2024-03-10T13:05:27.209Z,29.60
2024-03-10T13:07:54.668Z,29.23
2024-03-10T13:10:22.697Z,29.27
2024-03-10T13:12:51.130Z,29.16
2024-03-10T13:15:18.868Z,29.58
2024-03-10T13:17:46.351Z,29.40
2024-03-10T13:20:17.524Z,29.16
2024-03-10T13:22:47.029Z,29.79
2024-03-10T13:25:15.493Z,29.69
2024-03-10T13:27:43.030Z,30.17
2024-03-10T13:30:12.881Z,30.03
2024-03-10T13:32:41.983Z,30.18
2024-03-10T13:35:10.046Z,29.69
2024-03-10T13:37:37.427Z,29.03
2024-03-10T13:40:12.063Z,28.89
2024-03-10T13:42:42.078Z,28.91
2024-03-10T13:45:16.828Z,28.57
2024-03-10T13:47:50.004Z,28.54
2024-03-10T13:50:20.511Z,28.79
2024-03-10T13:52:48.083Z,28.33
2024-03-10T13:55:15.430Z,28.22
2024-03-10T13:57:44.972Z,28.09
2024-03-10T14:00:14.545Z,28.39
2024-03-10T14:02:44.708Z,28.38
2024-03-10T14:05:14.058Z,28.02
2024-03-10T14:07:43.225Z,27.67
2024-03-10T14:10:13.938Z,27.94
2024-03-10T14:12:41.905Z,27.87
2024-03-10T14:15:11.075Z,28.00
2024-03-10T14:17:39.478Z,28.23
2024-03-10T14:20:15.199Z,28.18
2024-03-10T14:22:49.443Z,28.06
2024-03-10T14:25:18.642Z,28.17
2024-03-10T14:27:51.414Z,28.35
2024-03-10T14:30:22.288Z,28.68
2024-03-10T14:32:53.224Z,28.84
2024-03-10T14:35:26.300Z,28.71
2024-03-10T14:37:54.938Z,29.26
2024-03-10T14:40:23.547Z,29.43
2024-03-10T14:42:53.232Z,30.36
2024-03-10T14:45:21.311Z,30.42
2024-03-10T14:47:50.680Z,30.71
2024-03-10T14:50:21.335Z,31.22
2024-03-10T14:52:50.224Z,31.87
2024-03-10T14:55:18.317Z,31.52
2024-03-10T14:57:47.195Z,31.77
2024-03-10T15:00:36.179Z,32.67
2024-03-10T15:03:09.866Z,32.65
2024-03-10T15:05:40.789Z,32.96
2024-03-10T15:08:10.216Z,33.65
2024-03-10T15:10:38.087Z,33.93
2024-03-10T15:13:08.918Z,33.89
2024-03-10T15:15:36.903Z,34.15
2024-03-10T15:18:06.998Z,34.40
2024-03-10T15:20:43.845Z,34.37
2024-03-10T15:23:15.046Z,34.49
2024-03-10T15:25:44.811Z,34.82
2024-03-10T15:28:12.791Z,37.54
2024-03-10T15:30:42.548Z,34.92
2024-03-10T15:33:12.314Z,35.42
2024-03-10T15:35:40.347Z,36.12
2024-03-10T15:38:09.450Z,39.87
2024-03-10T15:40:37.096Z,36.59
2024-03-10T15:43:04.806Z,37.26
2024-03-10T15:45:40.283Z,37.02
2024-03-10T15:48:09.904Z,36.87
2024-03-10T15:50:37.876Z,37.21
2024-03-10T15:53:07.268Z,37.06
2024-03-10T15:55:34.925Z,37.16
2024-03-10T15:58:02.382Z,37.56
2024-03-10T16:00:32.389Z,37.97
2024-03-10T16:03:12.184Z,37.84
2024-03-10T16:05:53.753Z,37.82
2024-03-10T16:08:24.909Z,37.72
2024-03-10T16:10:52.435Z,38.13
2024-03-10T16:13:52.074Z,38.67
2024-03-10T16:16:22.041Z,39.30
2024-03-10T16:18:50.719Z,39.32
2024-03-10T16:21:45.336Z,39.89
2024-03-10T16:24:14.544Z,39.68
2024-03-10T16:26:44.915Z,40.21
2024-03-10T16:29:13.652Z,40.39
2024-03-10T16:31:41.799Z,40.56
2024-03-10T16:34:10.770Z,40.82
2024-03-10T16:36:39.302Z,41.17
2024-03-10T16:39:06.614Z,41.36
2024-03-10T16:41:35.964Z,41.77
2024-03-10T16:44:03.804Z,41.80
2024-03-10T16:46:31.197Z,42.36
2024-03-10T16:48:58.871Z,42.18
2024-03-10T16:51:26.307Z,42.32
2024-03-10T16:53:54.334Z,42.81
2024-03-10T16:56:24.342Z,43.05
2024-03-10T16:58:52.417Z,43.46
2024-03-10T17:01:21.246Z,43.53
2024-03-10T17:03:48.921Z,43.83
2024-03-10T17:06:17.681Z,43.96
2024-03-10T17:08:45.071Z,44.32
2024-03-10T17:11:12.862Z,44.77
2024-03-10T17:13:40.199Z,45.73
2024-03-10T17:16:07.867Z,46.63
2024-03-10T17:18:36.801Z,48.51
2024-03-10T17:21:04.564Z,50.52
2024-03-10T17:23:32.005Z,51.26
2024-03-10T17:25:59.693Z,51.57
2024-03-10T17:28:27.161Z,53.63
2024-03-10T17:30:54.373Z,53.74
2024-03-10T17:33:22.016Z,53.77
2024-03-10T17:35:49.354Z,53.75
2024-03-10T17:38:17.966Z,54.07
2024-03-10T17:40:45.656Z,54.15
2024-03-10T17:43:12.955Z,55.08
2024-03-10T17:45:41.442Z,54.81
2024-03-10T17:48:12.081Z,54.80
2024-03-10T17:50:42.012Z,54.55
2024-03-10T17:53:11.062Z,54.73
2024-03-10T17:55:39.975Z,55.07
2024-03-10T17:58:08.047Z,54.26
2024-03-10T18:00:38.038Z,54.43
2024-03-10T18:03:05.533Z,55.03
2024-03-10T18:05:34.075Z,55.12
2024-03-10T18:08:02.856Z,54.69
2024-03-10T18:10:30.236Z,54.73
2024-03-10T18:12:57.424Z,55.30
2024-03-10T18:15:25.785Z,54.82
2024-03-10T18:17:54.307Z,55.17
2024-03-10T18:20:23.990Z,54.99
2024-03-10T18:22:53.432Z,54.26
2024-03-10T18:25:22.450Z,53.64
2024-03-10T18:27:49.930Z,53.86
2024-03-10T18:30:19.058Z,54.66
2024-03-10T18:32:47.710Z,54.62
2024-03-10T18:35:17.328Z,55.32
2024-03-10T18:37:45.986Z,56.53
2024-03-10T18:40:13.490Z,57.10
2024-03-10T18:42:44.357Z,59.91
2024-03-10T18:45:14.002Z,62.28
2024-03-10T18:47:41.443Z,62.72
2024-03-10T18:50:12.673Z,62.92
2024-03-10T18:52:42.636Z,64.42
2024-03-10T18:55:16.203Z,64.97
2024-03-10T18:57:45.612Z,64.72
2024-03-10T19:00:13.964Z,64.65
2024-03-10T19:02:42.412Z,65.58
2024-03-10T19:05:10.764Z,66.42
2024-03-10T19:07:41.511Z,65.02
2024-03-10T19:10:11.048Z,66.00
2024-03-10T19:12:40.880Z,67.92
2024-03-10T19:15:09.081Z,66.70
2024-03-10T19:17:38.674Z,66.53
2024-03-10T19:20:12.138Z,68.22
2024-03-10T19:22:58.593Z,67.98
2024-03-10T19:25:29.369Z,69.04
2024-03-10T19:27:56.683Z,68.88
2024-03-10T19:30:25.775Z,66.81
2024-03-10T19:32:53.409Z,66.55
2024-03-10T19:35:23.658Z,67.28
2024-03-10T19:37:52.335Z,66.76
2024-03-10T19:40:20.634Z,66.44
2024-03-10T19:42:49.837Z,66.22
2024-03-10T19:45:20.559Z,66.04
2024-03-10T19:47:49.337Z,66.10
2024-03-10T19:50:21.280Z,65.41
2024-03-10T19:52:50.750Z,65.47
2024-03-10T19:55:18.588Z,65.17
2024-03-10T19:57:45.944Z,66.38
2024-03-10T20:00:16.999Z,66.79
2024-03-10T20:02:48.384Z,67.12
2024-03-10T20:05:16.094Z,66.91
2024-03-10T20:07:49.797Z,65.83
2024-03-10T20:10:21.088Z,65.80
2024-03-10T20:12:50.757Z,66.54
2024-03-10T20:15:19.471Z,66.96
2024-03-10T20:17:50.095Z,66.49
2024-03-10T20:20:26.203Z,66.71
2024-03-10T20:22:55.941Z,65.33
2024-03-10T20:25:24.793Z,65.11
2024-03-10T20:27:53.229Z,64.93
2024-03-10T20:30:21.217Z,65.64
2024-03-10T20:32:48.986Z,65.01
2024-03-10T20:35:16.926Z,65.45
2024-03-10T20:37:44.749Z,65.92
2024-03-10T20:40:14.304Z,65.20
2024-03-10T20:42:42.469Z,64.94
2024-03-10T20:45:10.728Z,64.37
2024-03-10T20:47:50.167Z,65.41
2024-03-10T20:50:24.119Z,64.56
2024-03-10T20:52:53.349Z,64.37
2024-03-10T20:55:21.220Z,65.46
2024-03-10T20:57:48.491Z,65.76
2024-03-10T21:00:20.444Z,66.43
2024-03-10T21:02:50.598Z,66.16
2024-03-10T21:05:18.826Z,67.13
2024-03-10T21:07:47.101Z,66.67
2024-03-10T21:10:16.369Z,66.23
2024-03-10T21:12:46.337Z,66.14
2024-03-10T21:15:16.927Z,66.19
2024-03-10T21:17:46.601Z,66.71
2024-03-10T21:20:16.660Z,66.29
2024-03-10T21:22:44.190Z,67.07
2024-03-10T21:25:11.440Z,65.56
2024-03-10T21:27:45.219Z,65.06
2024-03-10T21:30:15.608Z,65.64
2024-03-10T21:32:44.265Z,65.34
2024-03-10T21:35:12.549Z,65.32
2024-03-10T21:37:42.097Z,65.70
2024-03-10T21:40:11.282Z,66.36
2024-03-10T21:42:40.193Z,66.45
2024-03-10T21:45:09.555Z,67.22
2024-03-10T21:47:41.608Z,65.93
2024-03-10T21:50:11.506Z,66.32
2024-03-10T21:52:39.926Z,66.26
2024-03-10T21:55:07.770Z,68.14
2024-03-10T21:57:38.110Z,69.74
2024-03-10T22:00:18.617Z,68.82
2024-03-10T22:02:49.416Z,68.70
2024-03-10T22:05:17.999Z,69.41
2024-03-10T22:07:46.688Z,68.88
2024-03-10T22:10:15.037Z,68.35
2024-03-10T22:12:44.473Z,68.18
2024-03-10T22:15:16.020Z,68.77
2024-03-10T22:17:51.520Z,68.49
2024-03-10T22:20:27.242Z,68.79
2024-03-10T22:22:59.013Z,69.17
2024-03-10T22:25:27.877Z,69.64
2024-03-10T22:27:55.808Z,70.23
2024-03-10T22:30:32.000Z,69.69
2024-03-10T22:32:59.702Z,71.13
2024-03-10T22:35:27.722Z,69.40
2024-03-10T22:37:56.657Z,68.75
2024-03-10T22:40:24.438Z,67.96
2024-03-10T22:42:54.313Z,67.38
2024-03-10T22:45:29.273Z,67.45
2024-03-10T22:48:00.436Z,67.68
2024-03-10T22:50:28.120Z,67.46
2024-03-10T22:52:56.878Z,67.29
2024-03-10T22:55:26.037Z,66.72
2024-03-10T22:57:54.299Z,66.60
2024-03-10T23:00:25.109Z,66.28
2024-03-10T23:02:53.925Z,66.96
2024-03-10T23:05:26.403Z,65.55
2024-03-10T23:08:05.972Z,65.75
2024-03-10T23:10:39.149Z,65.43
2024-03-10T23:13:07.227Z,65.43
2024-03-10T23:15:35.488Z,65.31
2024-03-10T23:18:03.199Z,65.60
2024-03-10T23:20:30.762Z,66.00
2024-03-10T23:22:58.520Z,65.30
2024-03-10T23:25:27.212Z,65.27
2024-03-10T23:27:55.164Z,65.20
2024-03-10T23:30:27.166Z,65.21
2024-03-10T23:32:56.516Z,64.88
2024-03-10T23:35:24.976Z,65.93
2024-03-10T23:37:52.523Z,66.36
2024-03-10T23:40:24.468Z,65.91
2024-03-10T23:42:53.429Z,65.46
2024-03-10T23:45:21.812Z,65.19
2024-03-10T23:47:51.524Z,65.67
2024-03-10T23:50:21.422Z,65.13
2024-03-10T23:52:52.350Z,65.59
2024-03-10T23:55:21.650Z,64.92
2024-03-10T23:57:49.111Z,65.56
